createdAt,value
2022-11-06T00:01:25.556Z,78.73
2022-11-06T00:03:53.659Z,78.31
2022-11-06T00:06:39.277Z,78.60
2022-11-06T00:09:09.812Z,78.62
2022-11-06T00:11:36.680Z,78.71
2022-11-06T00:14:03.978Z,78.65
2022-11-06T00:16:30.958Z,78.69
2022-11-06T00:19:01.496Z,78.45
2022-11-06T00:21:30.308Z,78.53
2022-11-06T00:24:01.788Z,78.77
2022-11-06T00:26:30.782Z,78.72
2022-11-06T00:28:58.147Z,78.46
2022-11-06T00:31:31.893Z,78.29
2022-11-06T00:34:00.339Z,78.26
2022-11-06T00:36:32.349Z,78.52
2022-11-06T00:39:00.292Z,78.34
2022-11-06T00:41:27.769Z,78.86
2022-11-06T00:44:02.548Z,78.85
2022-11-06T00:46:29.642Z,78.47
2022-11-06T00:48:56.924Z,78.05
2022-11-06T00:51:30.992Z,78.31
2022-11-06T00:54:01.641Z,78.21
2022-11-06T00:56:29.052Z,78.73
2022-11-06T00:58:58.990Z,78.89
2022-11-06T01:01:35.742Z,77.68
2022-11-06T01:04:12.793Z,78.17
2022-11-06T01:06:43.051Z,78.68
2022-11-06T01:09:13.622Z,78.27
2022-11-06T01:14:35.234Z,78.43
2022-11-06T01:17:02.083Z,78.51
2022-11-06T01:19:28.889Z,78.13
2022-11-06T01:21:55.734Z,77.57
2022-11-06T01:24:26.279Z,77.96
2022-11-06T01:27:20.355Z,77.62
2022-11-06T01:29:40.688Z,78.33
2022-11-06T01:32:07.869Z,78.65
2022-11-06T01:34:34.686Z,78.41
2022-11-06T01:37:01.795Z,77.88
2022-11-06T01:39:28.582Z,77.82
2022-11-06T01:41:55.737Z,77.41
2022-11-06T01:44:44.303Z,77.78
2022-11-06T01:47:22.993Z,77.84
2022-11-06T01:49:53.680Z,77.90
2022-11-06T01:52:21.764Z,78.02
2022-11-06T01:54:58.475Z,77.92
2022-11-06T01:57:25.576Z,77.90
2022-11-06T01:59:55.207Z,78.40
2022-11-06T02:02:22.745Z,78.48
2022-11-06T02:04:50.430Z,78.22
2022-11-06T02:07:18.918Z,78.80
2022-11-06T02:09:46.249Z,78.68
2022-11-06T02:12:43.186Z,79.25
2022-11-06T02:15:46.447Z,78.98
2022-11-06T02:18:40.401Z,78.36
2022-11-06T02:21:41.417Z,78.04
2022-11-06T02:24:24.523Z,77.88
2022-11-06T02:27:23.563Z,77.97
2022-11-06T02:30:13.840Z,78.74
2022-11-06T02:32:55.270Z,78.72
2022-11-06T02:35:33.687Z,78.83
2022-11-06T02:38:09.157Z,79.45
2022-11-06T02:40:42.250Z,79.51
2022-11-06T02:43:09.701Z,79.58
2022-11-06T02:46:10.246Z,79.86
2022-11-06T02:48:49.551Z,79.97
2022-11-06T02:51:22.016Z,79.82
2022-11-06T02:53:49.516Z,80.15
2022-11-06T02:56:22.831Z,79.71
2022-11-06T02:58:57.761Z,79.75
2022-11-06T03:01:48.688Z,79.73
2022-11-06T03:04:32.703Z,79.84
2022-11-06T03:07:01.404Z,79.89
2022-11-06T03:09:31.859Z,79.36
2022-11-06T03:12:14.156Z,79.78
2022-11-06T03:15:22.750Z,79.60
2022-11-06T03:18:12.684Z,79.79
2022-11-06T03:20:54.603Z,80.26
2022-11-06T03:23:49.127Z,80.13
2022-11-06T03:26:21.664Z,80.10
2022-11-06T03:28:56.172Z,79.85
2022-11-06T03:32:12.995Z,80.19
2022-11-06T03:34:52.195Z,80.84
2022-11-06T03:37:29.654Z,80.77
2022-11-06T03:40:02.800Z,80.41
2022-11-06T03:42:30.929Z,80.72
2022-11-06T03:45:04.193Z,80.73
2022-11-06T03:47:39.623Z,80.57
2022-11-06T03:50:26.707Z,80.56
2022-11-06T03:53:12.341Z,80.50
2022-11-06T03:55:46.302Z,80.44
2022-11-06T03:58:23.275Z,80.34
2022-11-06T04:00:53.348Z,80.45
2022-11-06T04:03:36.051Z,80.74
2022-11-06T04:06:28.055Z,80.17
2022-11-06T04:09:17.142Z,80.46
2022-11-06T04:12:04.522Z,80.28
2022-11-06T04:14:33.696Z,80.51
2022-11-06T04:17:07.053Z,80.54
2022-11-06T04:19:33.814Z,80.61
2022-11-06T04:22:19.121Z,80.80
2022-11-06T04:25:12.579Z,80.67
2022-11-06T04:28:06.083Z,80.88
2022-11-06T04:30:48.523Z,80.53
2022-11-06T04:33:43.861Z,80.72
2022-11-06T04:36:39.398Z,80.89
2022-11-06T04:39:41.428Z,80.94
2022-11-06T04:42:25.107Z,80.43
2022-11-06T04:45:02.741Z,80.45
2022-11-06T04:47:30.030Z,80.63
2022-11-06T04:49:59.159Z,80.31
2022-11-06T04:52:28.692Z,80.75
2022-11-06T04:54:57.626Z,80.74
2022-11-06T04:57:24.998Z,80.67
2022-11-06T04:59:52.060Z,80.48
2022-11-06T05:02:18.937Z,80.63
2022-11-06T05:04:45.835Z,81.18
2022-11-06T05:07:14.547Z,80.58
2022-11-06T05:09:42.389Z,80.39
2022-11-06T05:12:09.353Z,80.30
2022-11-06T05:14:36.126Z,80.45
2022-11-06T05:17:02.944Z,80.51
2022-11-06T05:19:29.721Z,80.64
2022-11-06T05:22:14.929Z,80.30
2022-11-06T05:24:41.691Z,80.24
2022-11-06T05:27:08.514Z,80.69
2022-11-06T05:29:35.301Z,80.30
2022-11-06T05:32:02.123Z,80.29
2022-11-06T05:34:28.968Z,80.21
2022-11-06T05:36:56.935Z,80.12
2022-11-06T05:39:23.854Z,79.87
2022-11-06T05:41:50.615Z,80.08
2022-11-06T05:44:17.527Z,79.84
2022-11-06T05:46:49.308Z,81.03
2022-11-06T05:49:18.650Z,80.25
2022-11-06T05:51:46.624Z,80.14
2022-11-06T05:54:14.088Z,80.15
2022-11-06T05:56:40.875Z,80.74
2022-11-06T05:59:07.728Z,80.68
2022-11-06T06:01:34.689Z,80.70
2022-11-06T06:04:01.512Z,80.60
2022-11-06T06:06:28.737Z,80.56
2022-11-06T06:08:55.569Z,80.90
2022-11-06T06:11:22.377Z,80.55
2022-11-06T06:13:49.210Z,80.30
2022-11-06T06:16:16.195Z,81.21
2022-11-06T06:18:43.025Z,80.82
2022-11-06T06:21:10.018Z,80.52
2022-11-06T06:23:36.826Z,80.51
2022-11-06T06:26:05.055Z,80.25
2022-11-06T06:28:32.821Z,80.48
2022-11-06T06:31:01.863Z,79.88
2022-11-06T06:33:29.006Z,79.89
2022-11-06T06:35:55.819Z,79.72
2022-11-06T06:38:22.753Z,79.40
2022-11-06T06:40:49.744Z,79.42
2022-11-06T06:43:16.605Z,80.10
2022-11-06T06:45:43.776Z,79.14
2022-11-06T06:48:10.796Z,79.77
2022-11-06T06:50:38.235Z,79.47
2022-11-06T06:53:05.049Z,79.43
2022-11-06T06:55:31.821Z,79.21
2022-11-06T06:57:59.883Z,78.92
2022-11-06T07:00:28.299Z,79.04
2022-11-06T07:02:55.491Z,78.72
2022-11-06T07:05:22.374Z,78.69
2022-11-06T07:07:49.191Z,78.76
2022-11-06T07:10:16.576Z,78.63
2022-11-06T07:12:43.443Z,78.19
2022-11-06T07:15:10.771Z,78.27
2022-11-06T07:17:37.574Z,78.06
2022-11-06T07:20:05.295Z,78.42
2022-11-06T07:22:37.031Z,78.20
2022-11-06T07:25:06.027Z,78.08
2022-11-06T07:27:33.483Z,78.72
2022-11-06T07:30:00.573Z,78.70
2022-11-06T07:32:27.718Z,79.26
2022-11-06T07:34:55.218Z,79.09
2022-11-06T07:37:22.068Z,79.09
2022-11-06T07:39:48.915Z,78.89
2022-11-06T07:42:16.784Z,78.84
2022-11-06T07:44:43.675Z,78.79
2022-11-06T07:47:10.443Z,78.88
2022-11-06T07:49:37.273Z,78.74
2022-11-06T07:52:06.009Z,78.81
2022-11-06T07:54:32.791Z,78.94
2022-11-06T07:56:59.607Z,79.17
2022-11-06T07:59:26.416Z,79.16
2022-11-06T08:01:53.291Z,79.15
2022-11-06T08:04:20.224Z,79.59
2022-11-06T08:06:47.047Z,79.43
2022-11-06T08:09:13.899Z,79.61
2022-11-06T08:11:40.734Z,79.12
2022-11-06T08:14:07.623Z,79.16
2022-11-06T08:16:34.456Z,79.21
2022-11-06T08:19:01.366Z,79.38
2022-11-06T08:21:28.464Z,79.27
2022-11-06T08:23:55.255Z,79.09
2022-11-06T08:26:22.097Z,79.14
2022-11-06T08:28:48.883Z,79.28
2022-11-06T08:31:15.987Z,79.75
2022-11-06T08:33:42.803Z,79.28
2022-11-06T08:36:10.396Z,79.36
2022-11-06T08:38:37.195Z,79.48
2022-11-06T08:41:12.155Z,79.16
2022-11-06T08:43:39.834Z,78.66
2022-11-06T08:46:08.473Z,78.90
2022-11-06T08:48:35.493Z,78.37
2022-11-06T08:51:04.413Z,78.29
2022-11-06T08:53:31.359Z,77.49
2022-11-06T08:55:58.207Z,77.74
2022-11-06T08:58:25.070Z,77.74
2022-11-06T09:00:51.946Z,77.14
2022-11-06T09:03:18.988Z,76.80
2022-11-06T09:05:46.356Z,76.38
2022-11-06T09:08:14.322Z,76.60
2022-11-06T09:10:42.841Z,76.27
2022-11-06T09:13:10.747Z,76.02
2022-11-06T09:15:38.419Z,76.13
2022-11-06T09:18:05.467Z,76.15
2022-11-06T09:20:32.243Z,76.00
2022-11-06T09:23:08.065Z,75.33
2022-11-06T09:25:35.021Z,75.20
2022-11-06T09:28:01.967Z,74.04
2022-11-06T09:30:31.384Z,74.47
2022-11-06T09:33:01.491Z,74.91
2022-11-06T09:35:31.447Z,73.85
2022-11-06T09:38:08.564Z,74.24
2022-11-06T09:40:58.313Z,74.74
2022-11-06T09:44:05.275Z,73.56
2022-11-06T09:46:42.962Z,73.16
2022-11-06T09:49:24.849Z,72.61
2022-11-06T09:52:08.742Z,72.81
2022-11-06T09:55:00.280Z,72.79
2022-11-06T09:57:46.659Z,72.04
2022-11-06T10:00:16.628Z,71.56
2022-11-06T10:02:50.319Z,71.21
2022-11-06T10:05:26.231Z,69.95
2022-11-06T10:07:57.507Z,69.23
2022-11-06T10:10:36.118Z,68.16
2022-11-06T10:13:45.818Z,68.82
2022-11-06T10:17:04.607Z,67.79
2022-11-06T10:19:57.590Z,68.36
2022-11-06T10:22:39.798Z,69.19
2022-11-06T10:25:22.041Z,68.49
2022-11-06T10:28:05.536Z,67.44
2022-11-06T10:31:02.106Z,67.40
2022-11-06T10:34:05.621Z,67.38
2022-11-06T10:36:50.117Z,65.50
2022-11-06T10:39:33.090Z,65.58
2022-11-06T10:42:16.158Z,64.72
2022-11-06T10:44:50.042Z,64.01
2022-11-06T10:47:32.380Z,62.25
2022-11-06T10:50:03.302Z,61.07
2022-11-06T10:52:36.681Z,60.56
2022-11-06T10:55:40.966Z,57.52
2022-11-06T10:58:13.030Z,54.44
2022-11-06T11:00:40.714Z,53.49
2022-11-06T11:03:28.448Z,53.99
2022-11-06T11:05:55.721Z,51.66
2022-11-06T11:08:34.176Z,51.59
2022-11-06T11:11:23.567Z,52.58
2022-11-06T11:13:56.291Z,52.53
2022-11-06T11:16:27.048Z,52.20
2022-11-06T11:18:54.097Z,50.80
2022-11-06T11:21:30.152Z,52.39
2022-11-06T11:24:07.160Z,50.96
2022-11-06T11:26:43.488Z,50.49
2022-11-06T11:29:29.495Z,51.51
2022-11-06T11:32:00.630Z,50.57
2022-11-06T11:34:30.585Z,48.75
2022-11-06T11:37:00.640Z,47.83
2022-11-06T11:39:34.836Z,45.57
2022-11-06T11:42:24.060Z,45.91
2022-11-06T11:45:09.033Z,45.60
2022-11-06T11:47:42.409Z,47.80
2022-11-06T11:50:31.661Z,48.21
2022-11-06T11:53:10.149Z,47.16
2022-11-06T11:55:43.832Z,45.45
2022-11-06T11:58:26.135Z,41.99
2022-11-06T12:01:03.457Z,39.51
2022-11-06T12:03:39.806Z,39.42
2022-11-06T12:06:18.577Z,43.01
2022-11-06T12:08:53.032Z,45.61
2022-11-06T12:11:26.418Z,45.97
2022-11-06T12:14:21.088Z,46.08
2022-11-06T12:16:55.206Z,45.02
2022-11-06T12:19:26.271Z,43.72
2022-11-06T12:21:58.991Z,42.82
2022-11-06T12:25:09.651Z,42.73
2022-11-06T12:27:48.729Z,41.67
2022-11-06T12:30:18.680Z,42.91
2022-11-06T12:33:01.527Z,42.97
2022-11-06T12:35:41.921Z,41.43
2022-11-06T12:38:44.732Z,41.68
2022-11-06T12:41:15.459Z,42.68
2022-11-06T12:43:51.075Z,42.45
2022-11-06T12:46:44.132Z,43.21
2022-11-06T12:49:41.455Z,44.98
2022-11-06T12:52:32.780Z,45.28
2022-11-06T12:55:24.041Z,44.70
2022-11-06T12:58:19.099Z,44.77
2022-11-06T13:00:56.661Z,43.14
2022-11-06T13:03:41.653Z,42.90
2022-11-06T13:06:21.769Z,43.30
2022-11-06T13:09:14.467Z,43.67
2022-11-06T13:12:18.790Z,41.83
2022-11-06T13:15:29.916Z,39.37
2022-11-06T13:18:25.301Z,39.68
2022-11-06T13:21:23.052Z,39.57
2022-11-06T13:23:53.604Z,39.97
2022-11-06T13:26:30.975Z,40.54
2022-11-06T13:29:03.968Z,41.46
2022-11-06T13:32:03.303Z,41.86
2022-11-06T13:34:35.361Z,43.19
2022-11-06T13:37:02.426Z,43.50
2022-11-06T13:39:37.450Z,43.40
2022-11-06T13:42:19.203Z,42.76
2022-11-06T13:44:46.819Z,43.41
2022-11-06T13:47:35.089Z,43.26
2022-11-06T13:50:14.422Z,42.85
2022-11-06T13:52:58.730Z,41.02
2022-11-06T13:55:49.718Z,39.76
2022-11-06T13:58:36.366Z,39.06
2022-11-06T14:01:11.420Z,38.67
2022-11-06T14:03:54.962Z,38.02
2022-11-06T14:06:25.087Z,38.83
2022-11-06T14:08:59.678Z,39.00
2022-11-06T14:11:34.131Z,39.99
2022-11-06T14:14:05.627Z,39.72
2022-11-06T14:16:39.213Z,39.42
2022-11-06T14:19:21.084Z,40.12
2022-11-06T14:21:58.296Z,38.43
2022-11-06T14:24:42.242Z,38.39
2022-11-06T14:27:24.348Z,38.22
2022-11-06T14:30:50.442Z,39.48
2022-11-06T14:33:41.977Z,39.39
2022-11-06T14:36:24.095Z,39.44
2022-11-06T14:38:52.439Z,40.04
2022-11-06T14:41:34.583Z,41.67
2022-11-06T14:44:26.297Z,43.13
2022-11-06T14:47:03.856Z,45.87
2022-11-06T14:49:42.105Z,46.93
2022-11-06T14:52:13.190Z,48.51
2022-11-06T14:54:51.724Z,50.25
2022-11-06T14:57:46.359Z,51.84
2022-11-06T15:00:42.069Z,54.04
2022-11-06T15:03:22.356Z,55.35
2022-11-06T15:05:52.321Z,57.21
2022-11-06T15:08:54.004Z,59.06
2022-11-06T15:11:29.799Z,60.27
2022-11-06T15:14:16.957Z,60.80
2022-11-06T15:17:11.684Z,61.00
2022-11-06T15:19:48.055Z,61.69
2022-11-06T15:22:22.160Z,62.48
2022-11-06T15:25:17.792Z,62.92
2022-11-06T15:27:55.578Z,63.03
2022-11-06T15:30:22.383Z,63.96
2022-11-06T15:32:52.237Z,65.32
2022-11-06T15:35:27.515Z,65.31
2022-11-06T15:38:06.571Z,65.59
2022-11-06T15:40:37.549Z,65.92
2022-11-06T15:43:30.204Z,65.59
2022-11-06T15:46:07.748Z,66.46
2022-11-06T15:48:35.114Z,67.07
2022-11-06T15:51:01.961Z,67.40
2022-11-06T15:53:30.239Z,68.36
2022-11-06T15:56:06.054Z,68.60
2022-11-06T15:58:36.525Z,69.24
2022-11-06T16:01:06.441Z,69.65
2022-11-06T16:03:52.399Z,70.17
2022-11-06T16:06:20.241Z,70.11
2022-11-06T16:08:48.910Z,69.81
2022-11-06T16:11:19.240Z,70.71
2022-11-06T16:13:46.903Z,70.65
2022-11-06T16:16:42.580Z,70.13
2022-11-06T16:19:36.627Z,71.36
2022-11-06T16:22:13.608Z,71.79
2022-11-06T16:24:53.938Z,71.54
2022-11-06T16:27:23.412Z,71.61
2022-11-06T16:29:58.875Z,71.97
2022-11-06T16:32:30.022Z,72.26
2022-11-06T16:34:56.879Z,73.23
2022-11-06T16:37:29.791Z,73.20
2022-11-06T16:39:59.401Z,73.57
2022-11-06T16:42:38.812Z,73.59
2022-11-06T16:45:16.137Z,73.95
2022-11-06T16:47:42.957Z,74.01
2022-11-06T16:50:43.651Z,74.10
2022-11-06T16:53:11.186Z,74.14
2022-11-06T16:55:38.227Z,74.40
2022-11-06T16:58:05.148Z,73.73
2022-11-06T17:00:33.196Z,74.37
2022-11-06T17:03:05.564Z,74.24
2022-11-06T17:05:36.652Z,74.22
2022-11-06T17:08:18.842Z,74.35
2022-11-06T17:10:48.420Z,74.15
2022-11-06T17:13:18.021Z,74.00
2022-11-06T17:16:11.407Z,74.26
2022-11-06T17:18:39.387Z,74.90
2022-11-06T17:21:38.712Z,74.81
2022-11-06T17:24:24.364Z,74.72
2022-11-06T17:26:53.671Z,74.82
2022-11-06T17:29:22.313Z,75.18
2022-11-06T17:31:51.227Z,74.97
2022-11-06T17:34:18.040Z,74.57
2022-11-06T17:36:44.844Z,74.70
2022-11-06T17:39:11.633Z,74.86
2022-11-06T17:41:38.391Z,75.06
2022-11-06T17:44:06.808Z,74.97
2022-11-06T17:46:40.616Z,74.50
2022-11-06T17:49:10.553Z,74.67
2022-11-06T17:51:53.430Z,74.90
2022-11-06T17:54:25.568Z,74.96
2022-11-06T17:56:54.967Z,75.38
2022-11-06T17:59:23.861Z,75.22
2022-11-06T18:01:52.100Z,74.96
2022-11-06T18:04:21.751Z,74.93
2022-11-06T18:06:52.048Z,75.37
2022-11-06T18:09:20.674Z,75.46
2022-11-06T18:11:51.911Z,75.39
2022-11-06T18:14:19.619Z,75.28
2022-11-06T18:16:46.882Z,75.86
2022-11-06T18:19:18.308Z,75.66
2022-11-06T18:21:45.708Z,75.43
2022-11-06T18:24:12.608Z,75.51
2022-11-06T18:26:40.238Z,75.66
2022-11-06T18:29:08.420Z,75.48
2022-11-06T18:31:36.062Z,75.56
2022-11-06T18:34:04.672Z,75.31
2022-11-06T18:36:36.619Z,75.69
2022-11-06T18:39:05.248Z,75.58
2022-11-06T18:41:32.280Z,75.88
2022-11-06T18:43:59.785Z,75.76
2022-11-06T18:46:27.896Z,75.98
2022-11-06T18:48:58.345Z,76.09
2022-11-06T18:51:35.685Z,76.23
2022-11-06T18:54:06.749Z,76.34
2022-11-06T18:56:36.129Z,76.25
2022-11-06T18:59:05.638Z,76.52
2022-11-06T19:01:34.618Z,76.37
2022-11-06T19:04:03.626Z,76.61
2022-11-06T19:06:31.168Z,76.37
2022-11-06T19:08:58.836Z,76.41
2022-11-06T19:11:25.664Z,76.88
2022-11-06T19:13:52.541Z,76.45
2022-11-06T19:16:19.727Z,76.71
2022-11-06T19:21:30.594Z,77.19
2022-11-06T19:24:04.556Z,77.02
2022-11-06T19:26:36.879Z,76.51
2022-11-06T19:29:07.457Z,76.50
2022-11-06T19:31:37.385Z,76.64
2022-11-06T19:34:07.255Z,76.95
2022-11-06T19:36:35.451Z,77.06
2022-11-06T19:39:03.090Z,76.59
2022-11-06T19:41:30.160Z,76.77
2022-11-06T19:43:57.042Z,76.95
2022-11-06T19:46:28.517Z,77.18
2022-11-06T19:49:00.828Z,77.07
2022-11-06T19:51:28.023Z,77.23
2022-11-06T19:53:55.231Z,77.31
2022-11-06T19:56:22.796Z,77.34
2022-11-06T19:58:50.707Z,77.21
2022-11-06T20:01:19.982Z,77.72
2022-11-06T20:03:47.159Z,77.42
2022-11-06T20:06:15.023Z,77.40
2022-11-06T20:08:42.645Z,77.60
2022-11-06T20:11:13.236Z,77.41
2022-11-06T20:13:42.119Z,77.32
2022-11-06T20:16:17.320Z,77.49
2022-11-06T20:18:58.928Z,77.55
2022-11-06T20:21:31.260Z,77.83
2022-11-06T20:23:58.405Z,77.75
2022-11-06T20:26:25.673Z,77.07
2022-11-06T20:28:52.718Z,76.73
2022-11-06T20:31:21.719Z,76.79
2022-11-06T20:33:49.863Z,76.78
2022-11-06T20:36:24.649Z,77.00
2022-11-06T20:38:55.402Z,76.94
2022-11-06T20:41:23.702Z,77.16
2022-11-06T20:43:53.050Z,77.35
2022-11-06T20:46:21.196Z,76.85
2022-11-06T20:48:49.548Z,76.45
2022-11-06T20:51:23.043Z,76.83
2022-11-06T20:53:51.041Z,76.58
2022-11-06T20:56:21.809Z,76.47
2022-11-06T20:58:48.870Z,76.67
2022-11-06T21:01:23.339Z,76.72
2022-11-06T21:03:51.845Z,76.52
2022-11-06T21:06:21.445Z,76.54
2022-11-06T21:08:48.665Z,76.47
2022-11-06T21:11:20.164Z,76.65
2022-11-06T21:13:50.533Z,77.01
2022-11-06T21:16:37.323Z,76.80
2022-11-06T21:19:05.515Z,76.88
2022-11-06T21:21:37.048Z,76.80
2022-11-06T21:24:04.843Z,76.45
2022-11-06T21:26:35.345Z,76.80
2022-11-06T21:29:05.931Z,77.06
2022-11-06T21:31:33.540Z,76.82
2022-11-06T21:34:03.693Z,77.19
2022-11-06T21:36:34.504Z,77.69
2022-11-06T21:39:07.632Z,78.06
2022-11-06T21:41:35.229Z,77.57
2022-11-06T21:44:03.640Z,77.35
2022-11-06T21:46:30.412Z,77.94
2022-11-06T21:48:57.686Z,77.72
2022-11-06T21:51:31.460Z,76.92
2022-11-06T21:54:18.070Z,76.84
2022-11-06T21:56:48.340Z,77.00
2022-11-06T21:59:18.267Z,77.07
2022-11-06T22:01:45.239Z,77.09
2022-11-06T22:04:12.783Z,76.91
2022-11-06T22:06:43.625Z,77.72
2022-11-06T22:09:12.361Z,77.15
2022-11-06T22:11:42.493Z,77.10
2022-11-06T22:14:15.366Z,77.35
2022-11-06T22:16:45.252Z,77.54
2022-11-06T22:19:14.558Z,77.59
2022-11-06T22:21:42.739Z,77.18
2022-11-06T22:24:12.982Z,77.23
2022-11-06T22:26:40.421Z,77.18
2022-11-06T22:29:11.956Z,77.27
2022-11-06T22:31:39.121Z,77.72
2022-11-06T22:34:06.196Z,77.26
2022-11-06T22:36:33.170Z,76.69
2022-11-06T22:39:06.363Z,76.39
2022-11-06T22:41:33.397Z,75.67
2022-11-06T22:44:01.215Z,75.60
2022-11-06T22:46:29.159Z,75.13
2022-11-06T22:48:57.082Z,75.12
2022-11-06T22:51:27.815Z,74.97
2022-11-06T22:53:55.816Z,74.51
2022-11-06T22:56:25.152Z,74.27
2022-11-06T22:59:03.688Z,74.44
2022-11-06T23:01:34.968Z,74.08
2022-11-06T23:04:09.979Z,74.58
2022-11-06T23:06:36.821Z,72.91
2022-11-06T23:09:03.720Z,71.93
2022-11-06T23:11:30.550Z,71.51
2022-11-06T23:14:03.307Z,71.50
2022-11-06T23:16:52.750Z,71.72
2022-11-06T23:19:20.804Z,71.82
2022-11-06T23:21:47.718Z,71.96
2022-11-06T23:24:14.843Z,72.20
2022-11-06T23:26:43.869Z,72.11
2022-11-06T23:29:10.738Z,72.67
2022-11-06T23:31:37.548Z,73.14
2022-11-06T23:34:04.381Z,72.54
2022-11-06T23:36:31.178Z,72.14
2022-11-06T23:38:58.061Z,72.17
2022-11-06T23:41:43.097Z,71.62
2022-11-06T23:44:29.915Z,70.54
2022-11-06T23:46:57.865Z,70.42
2022-11-06T23:49:24.887Z,69.96
2022-11-06T23:51:51.887Z,69.91
2022-11-06T23:54:18.669Z,69.25
2022-11-06T23:56:45.472Z,69.01
2022-11-06T23:59:12.792Z,69.25
